Weather at Springs Airfield

Public forecast

Using degrees Celsius for public forecast. Weather courtesy of forecast.io.

Current aviation weather report (METAR) for Springs Airfield

Retrieved 2021/09/18 19:00 UTC (55 minutes ago):

FASI 181900Z AUTO 04004KT //// // ////// 14/04 Q1030

Closest aviation forecast (TAF) to Springs Airfield

Closest forecast is OR Tambo International Airport, 10.5 nm (19.5 km) NW. Retrieved 2021/09/18 18:00 UTC (2 hours ago):

TAF FAOR 181600Z 1818/1924 01012KT CAVOK TX21/1913Z TN08/1904Z FM190800 32013KT CAVOK